Time,TemperatureF,DewpointF,PressureIn,WindDirection,WindDirectionDegrees,WindSpeedMPH,WindSpeedGustMPH,Humidity,HourlyPrecipIn,Conditions,Clouds,dailyrainin,SoftwareType,DateUTC
2013-01-06 00:00:00,45.3,37.2,29.71,SSW,202,2.2,2.2,73,0.00,,BKN250,0.00,VWS V14.01,2013-01-06 08:00:00,
2013-01-06 00:05:00,45.3,37.2,29.71,SSW,202,2.2,2.2,73,0.00,,CLR,0.00,VWS V14.01,2013-01-06 08:05:00,
2013-01-06 00:10:00,45.3,37.5,29.71,SSW,202,2.2,2.2,74,0.00,,CLR,0.00,VWS V14.01,2013-01-06 08:10:00,
2013-01-06 00:15:00,45.5,38.0,29.68,SSW,202,2.2,2.2,75,0.00,,CLR,0.00,VWS V14.01,2013-01-06 08:15:00,
2013-01-06 00:20:00,45.3,37.5,29.68,SSW,202,2.2,2.2,74,0.00,,CLR,0.00,VWS V14.01,2013-01-06 08:20:00,
2013-01-06 00:25:00,45.3,37.5,29.68,SSW,202,2.2,2.2,74,0.00,,CLR,0.00,VWS V14.01,2013-01-06 08:25:00,
2013-01-06 00:30:00,45.1,37.0,29.68,SSW,202,2.2,2.2,73,0.00,,CLR,0.00,VWS V14.01,2013-01-06 08:30:00,
2013-01-06 00:35:00,45.0,37.5,29.68,SSW,202,2.2,2.2,75,0.00,,CLR,0.00,VWS V14.01,2013-01-06 08:35:00,
2013-01-06 00:41:00,45.1,37.4,29.68,SSW,202,2.2,2.2,74,0.00,,CLR,0.00,VWS V14.01,2013-01-06 08:41:00,
2013-01-06 00:45:00,45.1,37.4,29.68,SSW,202,2.2,2.2,74,0.00,,CLR,0.00,VWS V14.01,2013-01-06 08:45:00,
2013-01-06 00:50:00,45.0,36.8,29.68,SSW,202,2.2,2.2,73,0.00,,CLR,0.00,VWS V14.01,2013-01-06 08:50:00,
2013-01-06 00:56:00,44.8,36.3,29.68,SSW,202,2.2,2.2,72,0.00,,CLR,0.00,VWS V14.01,2013-01-06 08:56:00,
2013-01-06 01:01:00,44.8,36.3,29.68,SSW,202,2.2,2.2,72,0.00,,CLR,0.00,VWS V14.01,2013-01-06 09:01:00,
2013-01-06 01:06:00,44.2,35.8,29.68,SSW,202,2.2,2.2,72,0.00,,CLR,0.00,VWS V14.01,2013-01-06 09:06:00,
2013-01-06 01:11:00,43.9,35.8,29.68,SSW,202,2.2,2.2,73,0.00,,CLR,0.00,VWS V14.01,2013-01-06 09:11:00,
2013-01-06 01:16:00,43.7,35.6,29.71,SSW,202,2.2,2.2,73,0.00,,CLR,0.00,VWS V14.01,2013-01-06 09:16:00,
2013-01-06 01:21:00,43.5,35.8,29.71,SSW,202,2.2,2.2,74,0.00,,CLR,0.00,VWS V14.01,2013-01-06 09:21:00,
2013-01-06 01:26:00,43.7,36.0,29.71,SSW,202,2.2,2.2,74,0.00,,CLR,0.00,VWS V14.01,2013-01-06 09:26:00,
2013-01-06 01:31:00,43.7,36.0,29.71,SSW,202,2.2,2.2,74,0.00,,CLR,0.00,VWS V14.01,2013-01-06 09:31:00,
2013-01-06 01:36:00,43.9,36.8,29.71,SSW,202,2.2,2.2,76,0.00,,CLR,0.00,VWS V14.01,2013-01-06 09:36:00,
2013-01-06 01:41:00,44.2,37.2,29.71,SSW,202,2.2,2.2,76,0.00,,CLR,0.00,VWS V14.01,2013-01-06 09:41:00,
2013-01-06 01:46:00,44.1,36.7,29.68,SSW,202,2.2,2.2,75,0.00,,CLR,0.00,VWS V14.01,2013-01-06 09:46:00,
2013-01-06 01:51:00,43.9,36.1,29.68,SSW,202,2.2,2.2,74,0.00,,CLR,0.00,VWS V14.01,2013-01-06 09:51:00,
2013-01-06 01:56:00,43.9,36.1,29.68,SSW,202,2.2,2.2,74,0.00,,CLR,0.00,VWS V14.01,2013-01-06 09:56:00,
2013-01-06 02:01:00,43.9,35.8,29.68,SSW,202,2.2,2.2,73,0.00,,CLR,0.00,VWS V14.01,2013-01-06 10:01:00,
2013-01-06 02:06:00,43.7,35.6,29.68,SSW,202,2.2,2.2,73,0.00,,CLR,0.00,VWS V14.01,2013-01-06 10:06:00,
2013-01-06 02:11:00,43.5,35.1,29.68,SSW,202,2.2,2.2,72,0.00,,CLR,0.00,VWS V14.01,2013-01-06 10:11:00,
2013-01-06 02:16:00,43.3,34.6,29.68,SSW,202,2.2,2.2,71,0.00,,CLR,0.00,VWS V14.01,2013-01-06 10:16:00,
2013-01-06 02:21:00,42.8,34.4,29.68,SSW,202,2.2,2.2,72,0.00,,CLR,0.00,VWS V14.01,2013-01-06 10:21:00,
2013-01-06 02:26:00,42.4,34.4,29.68,SSW,202,2.2,2.2,73,0.00,,CLR,0.00,VWS V14.01,2013-01-06 10:26:00,
2013-01-06 02:31:00,42.6,34.9,29.68,SSW,202,2.2,2.2,74,0.00,,CLR,0.00,VWS V14.01,2013-01-06 10:31:00,
2013-01-06 02:36:00,43.2,35.5,29.68,SSW,202,2.2,2.2,74,0.00,,CLR,0.00,VWS V14.01,2013-01-06 10:36:00,
2013-01-06 02:41:00,43.5,35.8,29.68,SSW,202,2.2,2.2,74,0.00,,CLR,0.00,VWS V14.01,2013-01-06 10:41:00,
2013-01-06 02:46:00,43.9,36.1,29.68,SSW,202,2.2,2.2,74,0.00,,CLR,0.00,VWS V14.01,2013-01-06 10:46:00,
2013-01-06 02:51:00,44.2,36.2,29.68,SSW,202,2.2,2.2,73,0.00,,CLR,0.00,VWS V14.01,2013-01-06 10:51:00,
2013-01-06 02:56:00,44.4,36.3,29.68,SSW,202,2.2,2.2,73,0.00,,CLR,0.00,VWS V14.01,2013-01-06 10:56:00,
2013-01-06 03:01:00,45.1,36.7,29.68,SSW,202,2.2,2.2,72,0.00,,OVC055,0.00,VWS V14.01,2013-01-06 11:01:00,
2013-01-06 03:06:00,45.5,37.0,29.68,SSW,202,2.2,2.2,72,0.00,,OVC055,0.00,VWS V14.01,2013-01-06 11:06:00,
2013-01-06 03:11:00,45.7,36.8,29.68,SSW,202,2.2,2.2,71,0.00,,OVC055,0.00,VWS V14.01,2013-01-06 11:11:00,
2013-01-06 03:16:00,45.9,37.0,29.68,SSW,202,2.2,2.2,71,0.00,,OVC055,0.00,VWS V14.01,2013-01-06 11:16:00,
2013-01-06 03:21:00,45.9,36.6,29.68,SSW,202,2.2,2.2,70,0.00,,OVC055,0.00,VWS V14.01,2013-01-06 11:21:00,
2013-01-06 03:26:00,45.9,36.3,29.68,SSW,202,2.2,2.2,69,0.00,,OVC055,0.00,VWS V14.01,2013-01-06 11:26:00,
2013-01-06 03:31:00,45.9,36.6,29.68,SSW,202,2.2,2.2,70,0.00,,OVC055,0.00,VWS V14.01,2013-01-06 11:31:00,
2013-01-06 03:36:00,45.9,36.6,29.68,SSW,202,2.2,2.2,70,0.00,,OVC055,0.00,VWS V14.01,2013-01-06 11:36:00,
2013-01-06 03:41:00,46.2,36.6,29.68,SSW,202,2.2,2.2,69,0.00,,OVC055,0.00,VWS V14.01,2013-01-06 11:41:00,
2013-01-06 03:48:00,46.2,36.6,29.68,SSW,202,2.2,2.2,69,0.00,,OVC055,0.00,VWS V14.01,2013-01-06 11:48:00,
2013-01-06 03:53:00,46.4,36.8,29.68,SSW,202,2.2,2.2,69,0.00,,OVC055,0.00,VWS V14.01,2013-01-06 11:53:00,
2013-01-06 03:58:00,46.6,37.0,29.68,SSW,202,2.2,2.2,69,0.00,,OVC055,0.00,VWS V14.01,2013-01-06 11:58:00,
2013-01-06 04:03:00,46.6,37.0,29.68,SSW,202,2.2,2.2,69,0.00,,-RA,0.00,VWS V14.01,2013-01-06 12:03:00,
2013-01-06 04:08:00,46.6,36.6,29.68,SSW,202,2.2,2.2,68,0.00,,-RA,0.00,VWS V14.01,2013-01-06 12:08:00,
2013-01-06 04:13:00,46.6,37.0,29.68,SSW,202,2.2,2.2,69,0.00,,-RA,0.00,VWS V14.01,2013-01-06 12:13:00,
2013-01-06 04:18:00,46.6,37.0,29.65,SSW,202,2.2,2.2,69,0.00,,-RA,0.00,VWS V14.01,2013-01-06 12:18:00,
2013-01-06 04:23:00,46.4,37.2,29.65,SSW,202,2.2,2.2,70,0.00,,-RA,0.00,VWS V14.01,2013-01-06 12:23:00,
2013-01-06 04:28:00,46.0,37.2,29.65,SSW,202,2.2,2.2,71,0.00,,-RA,0.00,VWS V14.01,2013-01-06 12:28:00,
2013-01-06 04:33:00,46.0,37.5,29.68,SSW,202,2.2,2.2,72,0.00,,-RA,0.00,VWS V14.01,2013-01-06 12:33:00,
2013-01-06 04:38:00,45.9,37.7,29.68,SSW,202,2.2,2.2,73,0.00,,-RA,0.00,VWS V14.01,2013-01-06 12:38:00,
2013-01-06 04:43:00,45.7,37.5,29.68,SSW,202,2.2,2.2,73,0.00,,-RA,0.00,VWS V14.01,2013-01-06 12:43:00,
2013-01-06 04:49:00,45.3,38.2,29.68,SSW,202,2.2,2.2,76,0.00,,-RA,0.00,VWS V14.01,2013-01-06 12:49:00,
2013-01-06 04:54:00,45.0,38.5,29.68,SSW,202,2.2,2.2,78,0.00,,-RA,0.00,VWS V14.01,2013-01-06 12:54:00,
2013-01-06 04:59:00,44.8,38.3,29.68,SSW,202,2.2,2.2,78,0.00,,-RA,0.00,VWS V14.01,2013-01-06 12:59:00,
2013-01-06 05:04:00,44.4,38.7,29.68,SSW,202,2.2,2.2,80,0.00,,-RA,0.00,VWS V14.01,2013-01-06 13:04:00,
2013-01-06 05:08:00,44.2,38.8,29.68,SSW,202,2.2,2.2,81,0.00,,-RA,0.00,VWS V14.01,2013-01-06 13:08:00,
2013-01-06 05:14:00,44.2,39.1,29.68,SSW,202,2.2,2.2,82,0.00,,-RA,0.00,VWS V14.01,2013-01-06 13:14:00,
2013-01-06 05:18:00,44.2,39.4,29.68,SSW,202,2.2,2.2,83,0.00,,-RA,0.00,VWS V14.01,2013-01-06 13:18:00,
2013-01-06 05:23:00,44.2,39.4,29.68,SSW,202,2.2,2.2,83,0.00,,-RA,0.00,VWS V14.01,2013-01-06 13:23:00,
2013-01-06 05:29:00,44.4,39.9,29.68,SSW,202,2.2,2.2,84,0.00,,-RA,0.00,VWS V14.01,2013-01-06 13:29:00,
2013-01-06 05:34:00,44.6,41.3,29.68,SSW,202,2.2,2.2,88,0.00,,-RA,0.00,VWS V14.01,2013-01-06 13:34:00,
2013-01-06 05:39:00,44.8,42.0,29.68,SSW,202,2.2,2.2,90,0.04,,-RA,0.04,VWS V14.01,2013-01-06 13:39:00,
2013-01-06 05:43:00,44.6,42.4,29.68,SSW,202,2.2,2.2,92,0.04,,-RA,0.04,VWS V14.01,2013-01-06 13:43:00,
2013-01-06 05:48:00,44.6,42.7,29.68,SSW,202,2.2,2.2,93,0.04,,-RA,0.04,VWS V14.01,2013-01-06 13:48:00,
2013-01-06 05:54:00,44.6,43.0,29.68,SSW,202,2.2,2.2,94,0.04,,-RA,0.04,VWS V14.01,2013-01-06 13:54:00,
2013-01-06 05:59:00,44.6,43.0,29.68,SSW,202,2.2,2.2,94,0.04,,-RA,0.04,VWS V14.01,2013-01-06 13:59:00,
2013-01-06 06:04:00,44.8,43.4,29.68,SSW,202,2.2,2.2,95,0.04,,-RA,0.04,VWS V14.01,2013-01-06 14:04:00,
2013-01-06 06:09:00,44.8,43.2,29.68,SSW,202,2.2,2.2,94,0.04,,-RA,0.04,VWS V14.01,2013-01-06 14:09:00,
2013-01-06 06:14:00,45.0,43.3,29.68,SSW,202,2.2,2.2,94,0.04,,-RA,0.04,VWS V14.01,2013-01-06 14:14:00,
2013-01-06 06:19:00,45.3,43.7,29.68,SSW,202,2.2,2.2,94,0.04,,-RA,0.04,VWS V14.01,2013-01-06 14:19:00,
2013-01-06 06:24:00,45.5,43.9,29.68,SSW,202,2.2,2.2,94,0.04,,-RA,0.04,VWS V14.01,2013-01-06 14:24:00,
2013-01-06 06:29:00,45.5,43.9,29.68,SSW,202,2.2,2.2,94,0.04,,-RA,0.04,VWS V14.01,2013-01-06 14:29:00,
2013-01-06 06:34:00,45.5,43.9,29.68,SSW,202,2.2,2.2,94,0.04,,-RA,0.04,VWS V14.01,2013-01-06 14:34:00,
2013-01-06 06:39:00,45.7,44.1,29.68,SSW,202,2.2,2.2,94,0.00,,-RA,0.04,VWS V14.01,2013-01-06 14:39:00,
2013-01-06 06:44:00,45.7,43.8,29.68,SSW,202,2.2,2.2,93,0.00,,-RA,0.04,VWS V14.01,2013-01-06 14:44:00,
2013-01-06 06:49:00,45.7,44.1,29.71,SSW,202,2.2,2.2,94,0.00,,-RA,0.04,VWS V14.01,2013-01-06 14:49:00,
2013-01-06 06:54:00,45.7,44.1,29.71,SSW,202,2.2,2.2,94,0.00,,-RA,0.04,VWS V14.01,2013-01-06 14:54:00,
2013-01-06 06:59:00,45.7,44.1,29.71,SSW,202,2.2,2.2,94,0.00,,-RA,0.04,VWS V14.01,2013-01-06 14:59:00,
2013-01-06 07:04:00,45.7,44.1,29.68,SSW,202,2.2,2.2,94,0.00,,,0.04,VWS V14.01,2013-01-06 15:04:00,
2013-01-06 07:09:00,45.9,44.2,29.68,SSW,202,2.2,2.2,94,0.00,,,0.04,VWS V14.01,2013-01-06 15:09:00,
2013-01-06 07:14:00,45.9,44.5,29.68,SSW,202,2.2,2.2,95,0.00,,,0.04,VWS V14.01,2013-01-06 15:14:00,
2013-01-06 07:19:00,45.9,44.5,29.68,SSW,202,2.2,2.2,95,0.00,,,0.04,VWS V14.01,2013-01-06 15:19:00,
2013-01-06 07:24:00,45.5,44.2,29.68,SSW,202,2.2,2.2,95,0.00,,,0.04,VWS V14.01,2013-01-06 15:24:00,
2013-01-06 07:29:00,45.5,44.2,29.68,SSW,202,2.2,2.2,95,0.00,,,0.04,VWS V14.01,2013-01-06 15:29:00,
2013-01-06 07:34:00,45.3,44.0,29.68,SSW,202,2.2,2.2,95,0.00,,,0.04,VWS V14.01,2013-01-06 15:34:00,
2013-01-06 07:39:00,45.3,44.0,29.68,SSW,202,2.2,2.2,95,0.00,,,0.04,VWS V14.01,2013-01-06 15:39:00,
2013-01-06 07:44:00,45.1,43.8,29.68,SSW,202,2.2,2.2,95,0.00,,,0.04,VWS V14.01,2013-01-06 15:44:00,
2013-01-06 07:49:00,45.0,43.6,29.68,SSW,202,2.2,2.2,95,0.00,,,0.04,VWS V14.01,2013-01-06 15:49:00,
2013-01-06 07:54:00,44.8,43.4,29.68,SSW,202,2.2,2.2,95,0.00,,,0.04,VWS V14.01,2013-01-06 15:54:00,
2013-01-06 07:59:00,44.8,43.4,29.68,SSW,202,2.2,2.2,95,0.00,,,0.04,VWS V14.01,2013-01-06 15:59:00,
2013-01-06 08:04:00,45.0,43.6,29.68,SSW,202,2.2,2.2,95,0.00,,,0.04,VWS V14.01,2013-01-06 16:04:00,
2013-01-06 08:09:00,45.1,44.1,29.68,SSW,202,2.2,2.2,96,0.00,,,0.04,VWS V14.01,2013-01-06 16:09:00,
2013-01-06 08:14:00,45.3,44.2,29.68,SSW,202,2.2,2.2,96,0.00,,,0.04,VWS V14.01,2013-01-06 16:14:00,
2013-01-06 08:20:00,45.7,44.6,29.68,SSW,202,2.2,2.2,96,0.00,,,0.04,VWS V14.01,2013-01-06 16:20:00,
2013-01-06 08:25:00,46.4,45.3,29.68,SSW,202,2.2,2.2,96,0.00,,,0.04,VWS V14.01,2013-01-06 16:25:00,
2013-01-06 08:30:00,48.7,47.9,29.68,SSW,202,2.2,2.2,97,0.00,,,0.04,VWS V14.01,2013-01-06 16:30:00,
2013-01-06 08:35:00,50.2,49.4,29.68,SSW,202,2.2,2.2,97,0.00,,,0.04,VWS V14.01,2013-01-06 16:35:00,
2013-01-06 08:40:00,51.1,50.5,29.68,SSW,202,2.2,2.2,98,0.00,,,0.04,VWS V14.01,2013-01-06 16:40:00,
2013-01-06 08:45:00,52.2,51.6,29.71,SSW,202,2.2,2.2,98,0.00,,,0.04,VWS V14.01,2013-01-06 16:45:00,
2013-01-06 08:50:00,52.5,52.0,29.71,SSW,202,2.2,2.2,98,0.00,,,0.04,VWS V14.01,2013-01-06 16:50:00,
2013-01-06 08:55:00,53.1,52.5,29.71,SSW,202,2.2,2.2,98,0.00,,,0.04,VWS V14.01,2013-01-06 16:55:00,
2013-01-06 09:00:00,54.0,53.1,29.71,SW,225,0.0,0.0,97,0.00,,,0.04,VWS V14.01,2013-01-06 17:00:00,
2013-01-06 09:05:00,54.5,53.1,29.71,SW,225,0.0,0.0,95,0.00,,,0.04,VWS V14.01,2013-01-06 17:05:00,
2013-01-06 09:10:00,55.9,54.2,29.71,SW,225,0.0,0.0,94,0.00,,,0.04,VWS V14.01,2013-01-06 17:10:00,
2013-01-06 09:15:00,55.9,53.0,29.71,SSW,202,0.0,0.0,90,0.00,,,0.04,VWS V14.01,2013-01-06 17:15:00,
2013-01-06 09:20:00,56.7,53.2,29.71,ENE,68,0.0,0.0,88,0.00,,,0.04,VWS V14.01,2013-01-06 17:20:00,
2013-01-06 09:25:00,57.6,52.4,29.71,NNE,22,0.0,0.0,83,0.00,,,0.04,VWS V14.01,2013-01-06 17:25:00,
2013-01-06 09:30:00,57.9,51.8,29.71,WNW,292,0.0,0.0,80,0.00,,,0.04,VWS V14.01,2013-01-06 17:30:00,
2013-01-06 09:35:00,56.3,48.1,29.71,WNW,292,0.0,0.0,74,0.00,,,0.04,VWS V14.01,2013-01-06 17:35:00,
2013-01-06 09:40:00,56.3,48.1,29.71,WNW,292,0.0,0.0,74,0.00,,,0.04,VWS V14.01,2013-01-06 17:40:00,
2013-01-06 09:45:00,56.5,47.9,29.71,WNW,292,0.0,0.0,73,0.00,,,0.04,VWS V14.01,2013-01-06 17:45:00,
2013-01-06 09:50:00,56.1,47.2,29.71,WNW,292,0.0,0.0,72,0.00,,,0.04,VWS V14.01,2013-01-06 17:50:00,
2013-01-06 09:55:00,56.3,47.4,29.71,WNW,292,0.0,0.0,72,0.00,,,0.04,VWS V14.01,2013-01-06 17:55:00,
2013-01-06 10:00:00,55.4,46.2,29.68,WNW,292,0.0,0.0,71,0.00,,,0.04,VWS V14.01,2013-01-06 18:00:00,
2013-01-06 10:05:00,54.9,45.7,29.68,WNW,292,0.0,0.0,71,0.00,,BKN080,0.04,VWS V14.01,2013-01-06 18:05:00,
2013-01-06 10:10:00,54.7,45.8,29.68,WNW,292,0.0,0.0,72,0.00,,BKN080,0.04,VWS V14.01,2013-01-06 18:10:00,
2013-01-06 10:15:00,54.5,45.7,29.68,WNW,292,0.0,0.0,72,0.00,,BKN080,0.04,VWS V14.01,2013-01-06 18:15:00,
2013-01-06 10:20:00,54.5,45.7,29.68,WNW,292,0.0,0.0,72,0.00,,BKN080,0.04,VWS V14.01,2013-01-06 18:20:00,
2013-01-06 10:26:00,54.5,45.7,29.68,WNW,292,0.0,0.0,72,0.00,,BKN080,0.04,VWS V14.01,2013-01-06 18:26:00,
2013-01-06 10:31:00,54.3,45.1,29.68,WNW,292,0.0,0.0,71,0.00,,BKN080,0.04,VWS V14.01,2013-01-06 18:31:00,
2013-01-06 10:36:00,54.3,45.1,29.68,WNW,292,0.0,0.0,71,0.00,,BKN080,0.04,VWS V14.01,2013-01-06 18:36:00,
2013-01-06 10:41:00,56.5,46.8,29.68,South,180,0.0,0.0,70,0.00,,BKN080,0.04,VWS V14.01,2013-01-06 18:41:00,
2013-01-06 10:48:00,56.3,46.7,29.68,South,180,0.0,0.0,70,0.00,,BKN080,0.04,VWS V14.01,2013-01-06 18:48:00,
2013-01-06 10:53:00,56.1,45.3,29.68,South,180,0.0,0.0,67,0.00,,BKN080,0.04,VWS V14.01,2013-01-06 18:53:00,
2013-01-06 10:58:00,55.8,45.4,29.68,South,180,0.0,0.0,68,0.00,,BKN080,0.04,VWS V14.01,2013-01-06 18:58:00,
2013-01-06 11:03:00,55.4,45.0,29.68,South,180,0.0,0.0,68,0.00,,BKN060,0.04,VWS V14.01,2013-01-06 19:03:00,
2013-01-06 11:08:00,55.0,44.7,29.68,South,180,0.0,0.0,68,0.00,,BKN060,0.04,VWS V14.01,2013-01-06 19:08:00,
2013-01-06 11:13:00,54.7,44.3,29.68,South,180,0.0,0.0,68,0.00,,BKN060,0.04,VWS V14.01,2013-01-06 19:13:00,
2013-01-06 11:18:00,54.7,44.7,29.68,South,180,0.0,0.0,69,0.00,,BKN060,0.04,VWS V14.01,2013-01-06 19:18:00,
2013-01-06 11:23:00,55.0,45.5,29.68,South,180,0.0,0.0,70,0.00,,BKN060,0.04,VWS V14.01,2013-01-06 19:23:00,
2013-01-06 11:28:00,55.0,45.5,29.68,South,180,0.0,0.0,70,0.00,,BKN060,0.04,VWS V14.01,2013-01-06 19:28:00,
2013-01-06 11:33:00,55.0,45.1,29.68,South,180,0.0,0.0,69,0.00,,BKN060,0.04,VWS V14.01,2013-01-06 19:33:00,
2013-01-06 11:38:00,54.9,44.9,29.68,South,180,0.0,0.0,69,0.00,,BKN060,0.04,VWS V14.01,2013-01-06 19:38:00,
2013-01-06 11:43:00,54.7,44.7,29.68,South,180,0.0,0.0,69,0.00,,BKN060,0.04,VWS V14.01,2013-01-06 19:43:00,
2013-01-06 11:48:00,54.7,44.3,29.65,South,180,0.0,0.0,68,0.00,,BKN060,0.04,VWS V14.01,2013-01-06 19:48:00,
2013-01-06 11:53:00,54.9,44.9,29.65,South,180,0.0,0.0,69,0.00,,BKN060,0.04,VWS V14.01,2013-01-06 19:53:00,
2013-01-06 11:58:00,54.9,44.9,29.65,South,180,0.0,0.0,69,0.00,,BKN060,0.04,VWS V14.01,2013-01-06 19:58:00,
2013-01-06 12:03:00,55.6,46.0,29.62,South,180,0.0,0.0,70,0.00,,SCT042,0.04,VWS V14.01,2013-01-06 20:03:00,
2013-01-06 12:09:00,57.6,46.7,29.62,SSW,202,4.0,4.0,67,0.00,,SCT042,0.04,VWS V14.01,2013-01-06 20:09:00,
2013-01-06 12:11:00,57.2,44.3,29.62,SSW,202,4.0,4.0,62,0.00,,SCT042,0.04,VWS V14.01,2013-01-06 20:11:00,
2013-01-06 12:13:00,57.2,45.2,29.62,SSW,202,4.0,4.0,64,0.00,,SCT042,0.04,VWS V14.01,2013-01-06 20:13:00,
2013-01-06 12:18:00,58.6,46.5,29.62,SSW,202,4.0,4.0,64,0.00,,SCT042,0.04,VWS V14.01,2013-01-06 20:18:00,
2013-01-06 12:23:00,59.5,45.7,29.62,SSW,202,4.0,4.0,60,0.00,,SCT042,0.04,VWS V14.01,2013-01-06 20:23:00,
2013-01-06 12:28:00,59.4,45.9,29.62,SSW,202,4.0,4.0,61,0.00,,SCT042,0.04,VWS V14.01,2013-01-06 20:28:00,
2013-01-06 12:33:00,59.5,44.3,29.62,SSW,202,4.0,4.0,57,0.00,,SCT042,0.04,VWS V14.01,2013-01-06 20:33:00,
2013-01-06 12:38:00,59.5,43.4,29.62,SSW,202,4.0,4.0,55,0.00,,SCT042,0.04,VWS V14.01,2013-01-06 20:38:00,
2013-01-06 12:43:00,59.2,41.6,29.62,SSW,202,4.0,4.0,52,0.00,,SCT042,0.04,VWS V14.01,2013-01-06 20:43:00,
2013-01-06 12:48:00,59.0,40.9,29.62,SSW,202,4.0,4.0,51,0.00,,SCT042,0.04,VWS V14.01,2013-01-06 20:48:00,
2013-01-06 12:53:00,58.5,40.4,29.62,SSW,202,4.0,4.0,51,0.00,,SCT042,0.04,VWS V14.01,2013-01-06 20:53:00,
2013-01-06 12:58:00,59.2,41.6,29.62,SSW,202,4.0,4.0,52,0.00,,SCT042,0.04,VWS V14.01,2013-01-06 20:58:00,
2013-01-06 13:00:00,59.5,41.9,29.62,SSW,202,4.0,4.0,52,0.00,,SCT042,0.04,VWS V14.01,2013-01-06 21:00:00,
2013-01-06 13:05:00,59.4,41.8,29.62,SSW,202,4.0,4.0,52,0.00,,SCT036,0.04,VWS V14.01,2013-01-06 21:05:00,
2013-01-06 13:10:00,58.8,41.2,29.62,SSW,202,4.0,4.0,52,0.00,,SCT036,0.04,VWS V14.01,2013-01-06 21:10:00,
2013-01-06 13:15:00,59.7,42.1,29.65,SSW,202,4.0,4.0,52,0.00,,SCT036,0.04,VWS V14.01,2013-01-06 21:15:00,
2013-01-06 13:20:00,60.1,42.4,29.65,SSW,202,4.0,4.0,52,0.00,,SCT036,0.04,VWS V14.01,2013-01-06 21:20:00,
2013-01-06 13:25:00,60.4,42.8,29.65,SSW,202,4.0,4.0,52,0.00,,SCT036,0.04,VWS V14.01,2013-01-06 21:25:00,
2013-01-06 13:30:00,60.8,42.1,29.62,SSW,202,4.0,4.0,50,0.00,,SCT036,0.04,VWS V14.01,2013-01-06 21:30:00,
2013-01-06 13:35:00,59.7,41.1,29.62,SSW,202,4.0,4.0,50,0.00,,SCT036,0.04,VWS V14.01,2013-01-06 21:35:00,
2013-01-06 13:40:00,60.1,41.9,29.62,SSW,202,4.0,4.0,51,0.00,,SCT036,0.04,VWS V14.01,2013-01-06 21:40:00,
2013-01-06 13:45:00,60.6,41.9,29.62,SSW,202,4.0,4.0,50,0.00,,SCT036,0.04,VWS V14.01,2013-01-06 21:45:00,
2013-01-06 13:50:00,60.6,42.4,29.62,SSW,202,4.0,4.0,51,0.00,,SCT036,0.04,VWS V14.01,2013-01-06 21:50:00,
2013-01-06 13:55:00,60.6,42.4,29.62,SSW,202,4.0,4.0,51,0.00,,SCT036,0.04,VWS V14.01,2013-01-06 21:55:00,
2013-01-06 14:00:00,60.1,41.4,29.59,SSW,202,4.0,4.0,50,0.00,,SCT036,0.04,VWS V14.01,2013-01-06 22:00:00,
2013-01-06 14:05:00,60.3,42.1,29.59,SSW,202,4.0,4.0,51,0.00,,BKN060,0.04,VWS V14.01,2013-01-06 22:05:00,
2013-01-06 14:10:00,59.0,40.9,29.59,SSW,202,4.0,4.0,51,0.00,,BKN060,0.04,VWS V14.01,2013-01-06 22:10:00,
2013-01-06 14:15:00,58.1,40.1,29.59,SSW,202,4.0,4.0,51,0.00,,BKN060,0.04,VWS V14.01,2013-01-06 22:15:00,
2013-01-06 14:20:00,57.9,41.4,29.59,SSW,202,4.0,4.0,54,0.00,,BKN060,0.04,VWS V14.01,2013-01-06 22:20:00,
2013-01-06 14:25:00,57.9,41.4,29.59,SSW,202,4.0,4.0,54,0.00,,BKN060,0.04,VWS V14.01,2013-01-06 22:25:00,
2013-01-06 14:30:00,58.8,42.2,29.59,SSW,202,4.0,4.0,54,0.00,,BKN060,0.04,VWS V14.01,2013-01-06 22:30:00,
2013-01-06 14:35:00,58.5,41.4,29.59,SSW,202,4.0,4.0,53,0.00,,BKN060,0.04,VWS V14.01,2013-01-06 22:35:00,
2013-01-06 14:40:00,59.2,42.6,29.59,SSW,202,4.0,4.0,54,0.00,,BKN060,0.04,VWS V14.01,2013-01-06 22:40:00,
2013-01-06 14:45:00,58.8,41.7,29.59,SSW,202,4.0,4.0,53,0.00,,BKN060,0.04,VWS V14.01,2013-01-06 22:45:00,
2013-01-06 14:50:00,60.1,43.4,29.59,SSW,202,4.0,4.0,54,0.00,,BKN060,0.04,VWS V14.01,2013-01-06 22:50:00,
2013-01-06 14:55:00,59.5,41.9,29.59,SSW,202,4.0,4.0,52,0.00,,BKN060,0.04,VWS V14.01,2013-01-06 22:55:00,
2013-01-06 15:00:00,59.2,41.6,29.59,SSW,202,4.0,4.0,52,0.00,,BKN060,0.04,VWS V14.01,2013-01-06 23:00:00,
2013-01-06 15:05:00,57.7,40.2,29.59,SSW,202,4.0,4.0,52,0.00,,BKN200,0.04,VWS V14.01,2013-01-06 23:05:00,
2013-01-06 15:10:00,57.7,41.2,29.59,SSW,202,4.0,4.0,54,0.00,,BKN200,0.04,VWS V14.01,2013-01-06 23:10:00,
2013-01-06 15:15:00,57.9,40.9,29.59,SSW,202,4.0,4.0,53,0.00,,BKN200,0.04,VWS V14.01,2013-01-06 23:15:00,
2013-01-06 15:20:00,57.9,39.9,29.59,SSW,202,4.0,4.0,51,0.00,,BKN200,0.04,VWS V14.01,2013-01-06 23:20:00,
2013-01-06 15:25:00,57.9,39.9,29.59,SSW,202,4.0,4.0,51,0.00,,BKN200,0.04,VWS V14.01,2013-01-06 23:25:00,
2013-01-06 15:30:00,57.6,39.1,29.59,SSW,202,4.0,4.0,50,0.00,,BKN200,0.00,VWS V14.01,2013-01-06 23:30:00,
2013-01-06 15:35:00,56.5,40.0,29.59,SSW,202,4.0,4.0,54,0.00,,BKN200,0.04,VWS V14.01,2013-01-06 23:35:00,
2013-01-06 15:40:00,56.8,40.9,29.59,SSW,202,4.0,4.0,55,0.00,,BKN200,0.04,VWS V14.01,2013-01-06 23:40:00,
2013-01-06 15:45:00,57.0,41.0,29.59,SSW,202,4.0,4.0,55,0.00,,BKN200,0.04,VWS V14.01,2013-01-06 23:45:00,
2013-01-06 15:50:00,55.2,38.9,29.59,SSW,202,4.0,4.0,54,0.00,,BKN200,0.04,VWS V14.01,2013-01-06 23:50:00,
2013-01-06 15:55:00,54.3,39.0,29.59,SSW,202,4.0,4.0,56,0.00,,BKN200,0.04,VWS V14.01,2013-01-06 23:55:00,
2013-01-06 16:01:00,53.8,39.8,29.59,SSW,202,4.0,4.0,59,0.00,,BKN200,0.04,VWS V14.01,2013-01-07 00:01:00,
2013-01-06 16:08:00,53.2,39.7,29.59,SSW,202,4.0,4.0,60,0.00,,BKN200,0.04,VWS V14.01,2013-01-07 00:08:00,
2013-01-06 16:13:00,52.9,39.8,29.59,SSW,202,4.0,4.0,61,0.00,,BKN200,0.04,VWS V14.01,2013-01-07 00:13:00,
2013-01-06 16:18:00,52.5,40.3,29.59,SSW,202,4.0,4.0,63,0.00,,BKN200,0.04,VWS V14.01,2013-01-07 00:18:00,
2013-01-06 16:23:00,52.2,40.4,29.59,SSW,202,4.0,4.0,64,0.00,,BKN200,0.04,VWS V14.01,2013-01-07 00:23:00,
2013-01-06 16:28:00,52.0,41.0,29.59,SSW,202,4.0,4.0,66,0.00,,BKN200,0.04,VWS V14.01,2013-01-07 00:28:00,
2013-01-06 16:33:00,51.8,43.1,29.59,SSW,202,4.0,4.0,72,0.00,,BKN200,0.04,VWS V14.01,2013-01-07 00:33:00,
2013-01-06 16:38:00,51.3,43.6,29.59,SSW,202,4.0,4.0,75,0.00,,BKN200,0.04,VWS V14.01,2013-01-07 00:38:00,
2013-01-06 16:43:00,50.9,43.6,29.59,SSW,202,4.0,4.0,76,0.00,,BKN200,0.04,VWS V14.01,2013-01-07 00:43:00,
2013-01-06 16:48:00,50.2,43.3,29.59,SSW,202,4.0,4.0,77,0.00,,BKN200,0.04,VWS V14.01,2013-01-07 00:48:00,
2013-01-06 16:53:00,49.8,42.6,29.59,SSW,202,4.0,4.0,76,0.00,,BKN200,0.04,VWS V14.01,2013-01-07 00:53:00,
2013-01-06 16:58:00,49.5,42.9,29.59,SSW,202,4.0,4.0,78,0.00,,BKN200,0.04,VWS V14.01,2013-01-07 00:58:00,
2013-01-06 17:03:00,49.1,42.9,29.56,SSW,202,4.0,4.0,79,0.00,,BKN200,0.04,VWS V14.01,2013-01-07 01:03:00,
2013-01-06 17:08:00,48.9,42.4,29.56,SSW,202,4.0,4.0,78,0.00,,BKN200,0.04,VWS V14.01,2013-01-07 01:08:00,
2013-01-06 17:13:00,48.9,42.4,29.56,SSW,202,4.0,4.0,78,0.00,,BKN200,0.04,VWS V14.01,2013-01-07 01:13:00,
2013-01-06 17:18:00,48.9,43.0,29.56,SSW,202,4.0,4.0,80,0.00,,BKN200,0.04,VWS V14.01,2013-01-07 01:18:00,
2013-01-06 17:23:00,48.9,44.9,29.56,SSW,202,4.0,4.0,86,0.00,,BKN200,0.04,VWS V14.01,2013-01-07 01:23:00,
2013-01-06 17:28:00,48.7,45.3,29.56,SSW,202,4.0,4.0,88,0.00,,BKN200,0.04,VWS V14.01,2013-01-07 01:28:00,
2013-01-06 17:33:00,48.4,44.7,29.56,SSW,202,4.0,4.0,87,0.00,,BKN200,0.04,VWS V14.01,2013-01-07 01:33:00,
2013-01-06 17:38:00,48.2,44.2,29.56,SSW,202,4.0,4.0,86,0.00,,BKN200,0.04,VWS V14.01,2013-01-07 01:38:00,
2013-01-06 17:43:00,48.2,44.2,29.56,SSW,202,4.0,4.0,86,0.00,,BKN200,0.04,VWS V14.01,2013-01-07 01:43:00,
2013-01-06 17:48:00,48.2,43.9,29.53,SSW,202,4.0,4.0,85,0.00,,BKN200,0.04,VWS V14.01,2013-01-07 01:48:00,
2013-01-06 17:53:00,48.2,43.9,29.53,SSW,202,4.0,4.0,85,0.00,,BKN200,0.04,VWS V14.01,2013-01-07 01:53:00,
2013-01-06 17:58:00,48.0,43.7,29.53,SSW,202,4.0,4.0,85,0.00,,BKN200,0.04,VWS V14.01,2013-01-07 01:58:00,
2013-01-06 18:03:00,48.2,43.9,29.56,SSW,202,4.0,4.0,85,0.00,,-RA,0.04,VWS V14.01,2013-01-07 02:03:00,
2013-01-06 18:08:00,48.2,44.2,29.56,SSW,202,4.0,4.0,86,0.05,,-RA,0.09,VWS V14.01,2013-01-07 02:08:00,
2013-01-06 18:13:00,48.4,44.4,29.56,SSW,202,4.0,4.0,86,0.05,,-RA,0.09,VWS V14.01,2013-01-07 02:13:00,
2013-01-06 18:18:00,48.2,44.2,29.56,SSW,202,4.0,4.0,86,0.05,,-RA,0.09,VWS V14.01,2013-01-07 02:18:00,
2013-01-06 18:23:00,48.2,44.2,29.56,SSW,202,4.0,4.0,86,0.05,,-RA,0.09,VWS V14.01,2013-01-07 02:23:00,
2013-01-06 18:28:00,48.2,44.2,29.56,SSW,202,4.0,4.0,86,0.05,,-RA,0.09,VWS V14.01,2013-01-07 02:28:00,
2013-01-06 18:33:00,48.4,44.7,29.56,SSW,202,4.0,4.0,87,0.05,,-RA,0.09,VWS V14.01,2013-01-07 02:33:00,
2013-01-06 18:38:00,48.4,45.0,29.56,SSW,202,4.0,4.0,88,0.05,,-RA,0.09,VWS V14.01,2013-01-07 02:38:00,
2013-01-06 18:43:00,48.2,45.1,29.56,SSW,202,4.0,4.0,89,0.05,,-RA,0.09,VWS V14.01,2013-01-07 02:43:00,
2013-01-06 18:48:00,48.2,45.1,29.56,SSW,202,4.0,4.0,89,0.05,,-RA,0.09,VWS V14.01,2013-01-07 02:48:00,
2013-01-06 18:54:00,48.2,45.1,29.56,SSW,202,4.0,4.0,89,0.05,,-RA,0.09,VWS V14.01,2013-01-07 02:54:00,
2013-01-06 18:59:00,48.2,45.4,29.56,SSW,202,4.0,4.0,90,0.05,,-RA,0.09,VWS V14.01,2013-01-07 02:59:00,
2013-01-06 19:04:00,48.2,45.4,29.56,SSW,202,4.0,4.0,90,0.05,,OVC048,0.09,VWS V14.01,2013-01-07 03:04:00,
2013-01-06 19:09:00,48.2,45.4,29.56,SSW,202,4.0,4.0,90,0.00,,OVC048,0.09,VWS V14.01,2013-01-07 03:09:00,
2013-01-06 19:14:00,48.2,45.4,29.56,SSW,202,4.0,4.0,90,0.00,,OVC048,0.09,VWS V14.01,2013-01-07 03:14:00,
2013-01-06 19:19:00,48.2,45.7,29.56,SSW,202,4.0,4.0,91,0.00,,-RA,0.09,VWS V14.01,2013-01-07 03:19:00,
2013-01-06 19:24:00,48.2,45.7,29.56,SSW,202,4.0,4.0,91,0.00,,-RA,0.09,VWS V14.01,2013-01-07 03:24:00,
2013-01-06 19:29:00,48.2,45.7,29.56,SSW,202,4.0,4.0,91,0.00,,-RA,0.09,VWS V14.01,2013-01-07 03:29:00,
2013-01-06 19:34:00,48.2,46.0,29.56,SSW,202,4.0,4.0,92,0.00,,-RA,0.09,VWS V14.01,2013-01-07 03:34:00,
2013-01-06 19:39:00,48.2,46.0,29.56,SSW,202,4.0,4.0,92,0.00,,-RA,0.09,VWS V14.01,2013-01-07 03:39:00,
2013-01-06 19:44:00,48.0,46.1,29.56,SSW,202,4.0,4.0,93,0.00,,-RA,0.09,VWS V14.01,2013-01-07 03:44:00,
2013-01-06 19:49:00,48.0,46.1,29.56,SSW,202,4.0,4.0,93,0.00,,-RA,0.09,VWS V14.01,2013-01-07 03:49:00,
2013-01-06 19:54:00,48.0,46.1,29.56,SSW,202,4.0,4.0,93,0.00,,-RA,0.09,VWS V14.01,2013-01-07 03:54:00,
2013-01-06 19:59:00,48.0,46.1,29.56,SSW,202,4.0,4.0,93,0.00,,-RA,0.09,VWS V14.01,2013-01-07 03:59:00,
2013-01-06 20:04:00,48.0,46.1,29.56,SSW,202,4.0,4.0,93,0.00,,OVC110,0.09,VWS V14.01,2013-01-07 04:04:00,
2013-01-06 20:09:00,47.8,45.9,29.56,SSW,202,4.0,4.0,93,0.00,,OVC110,0.09,VWS V14.01,2013-01-07 04:09:00,
2013-01-06 20:14:00,47.8,46.2,29.56,SSW,202,4.0,4.0,94,0.00,,OVC110,0.09,VWS V14.01,2013-01-07 04:14:00,
2013-01-06 20:19:00,47.7,46.0,29.56,SSW,202,4.0,4.0,94,0.00,,OVC110,0.09,VWS V14.01,2013-01-07 04:19:00,
2013-01-06 20:24:00,47.7,46.0,29.56,SSW,202,4.0,4.0,94,0.00,,OVC110,0.09,VWS V14.01,2013-01-07 04:24:00,
2013-01-06 20:29:00,47.7,46.0,29.56,SSW,202,4.0,4.0,94,0.04,,OVC110,0.13,VWS V14.01,2013-01-07 04:29:00,
2013-01-06 20:34:00,47.7,46.3,29.56,SSW,202,4.0,4.0,95,0.04,,OVC110,0.13,VWS V14.01,2013-01-07 04:34:00,
2013-01-06 20:39:00,47.7,46.3,29.56,SSW,202,4.0,4.0,95,0.04,,OVC110,0.13,VWS V14.01,2013-01-07 04:39:00,
2013-01-06 20:44:00,47.7,46.3,29.56,SSW,202,4.0,4.0,95,0.04,,OVC110,0.13,VWS V14.01,2013-01-07 04:44:00,
2013-01-06 20:49:00,47.5,46.1,29.53,SSW,202,4.0,4.0,95,0.04,,OVC110,0.13,VWS V14.01,2013-01-07 04:49:00,
2013-01-06 20:54:00,47.5,46.1,29.53,SSW,202,4.0,4.0,95,0.04,,OVC110,0.13,VWS V14.01,2013-01-07 04:54:00,
2013-01-06 20:59:00,47.5,46.4,29.53,SSW,202,4.0,4.0,96,0.04,,OVC110,0.13,VWS V14.01,2013-01-07 04:59:00,
2013-01-06 21:00:00,47.5,46.4,29.53,SSW,202,4.0,4.0,96,0.04,,OVC110,0.13,VWS V14.01,2013-01-07 05:00:00,
2013-01-06 21:05:00,47.3,46.2,29.53,SSW,202,4.0,4.0,96,0.04,,BKN020,0.13,VWS V14.01,2013-01-07 05:05:00,
2013-01-06 21:10:00,47.1,46.0,29.53,SSW,202,4.0,4.0,96,0.04,,BKN020,0.13,VWS V14.01,2013-01-07 05:10:00,
2013-01-06 21:15:00,47.1,46.0,29.53,SSW,202,4.0,4.0,96,0.04,,BKN020,0.13,VWS V14.01,2013-01-07 05:15:00,
2013-01-06 21:20:00,47.1,46.0,29.53,SSW,202,4.0,4.0,96,0.04,,BKN020,0.13,VWS V14.01,2013-01-07 05:20:00,
2013-01-06 21:25:00,47.1,46.0,29.53,SSW,202,4.0,4.0,96,0.04,,BKN020,0.13,VWS V14.01,2013-01-07 05:25:00,
2013-01-06 21:30:00,47.1,46.0,29.53,SSW,202,4.0,4.0,96,0.00,,BKN020,0.13,VWS V14.01,2013-01-07 05:30:00,
2013-01-06 21:35:00,47.1,46.0,29.53,SSW,202,4.0,4.0,96,0.00,,BKN020,0.13,VWS V14.01,2013-01-07 05:35:00,
2013-01-06 21:40:00,47.1,46.0,29.53,SSW,202,4.0,4.0,96,0.00,,BKN020,0.13,VWS V14.01,2013-01-07 05:40:00,
2013-01-06 21:45:00,47.1,46.0,29.50,SSW,202,4.0,4.0,96,0.00,,BKN045,0.13,VWS V14.01,2013-01-07 05:45:00,
2013-01-06 21:50:00,47.1,46.0,29.50,SSW,202,4.0,4.0,96,0.00,,BKN045,0.13,VWS V14.01,2013-01-07 05:50:00,
2013-01-06 21:55:00,47.1,46.0,29.50,SSW,202,4.0,4.0,96,0.00,,BKN045,0.13,VWS V14.01,2013-01-07 05:55:00,
2013-01-06 22:00:00,47.1,46.0,29.50,SSW,202,4.0,4.0,96,0.00,,BKN045,0.13,VWS V14.01,2013-01-07 06:00:00,
2013-01-06 22:05:00,46.8,45.7,29.50,SSW,202,4.0,4.0,96,0.00,,BKN045,0.13,VWS V14.01,2013-01-07 06:05:00,
2013-01-06 22:10:00,46.6,45.5,29.50,SSW,202,4.0,4.0,96,0.00,,BKN045,0.13,VWS V14.01,2013-01-07 06:10:00,
2013-01-06 22:15:00,46.6,45.5,29.50,SSW,202,4.0,4.0,96,0.00,,BKN045,0.13,VWS V14.01,2013-01-07 06:15:00,
2013-01-06 22:20:00,46.2,45.2,29.50,SSW,202,4.0,4.0,96,0.00,,BKN045,0.13,VWS V14.01,2013-01-07 06:20:00,
2013-01-06 22:25:00,46.2,45.2,29.50,SSW,202,4.0,4.0,96,0.00,,BKN045,0.13,VWS V14.01,2013-01-07 06:25:00,
2013-01-06 22:30:00,45.9,44.8,29.50,SSW,202,4.0,4.0,96,0.00,,BKN045,0.13,VWS V14.01,2013-01-07 06:30:00,
2013-01-06 22:35:00,45.5,44.4,29.50,SSW,202,4.0,4.0,96,0.00,,BKN045,0.13,VWS V14.01,2013-01-07 06:35:00,
2013-01-06 22:40:00,45.3,44.2,29.50,SSW,202,4.0,4.0,96,0.00,,BKN045,0.13,VWS V14.01,2013-01-07 06:40:00,
2013-01-06 22:45:00,45.3,44.2,29.50,SSW,202,4.0,4.0,96,0.00,,BKN045,0.13,VWS V14.01,2013-01-07 06:45:00,
2013-01-06 22:50:00,45.1,44.3,29.50,SSW,202,4.0,4.0,97,0.00,,BKN045,0.13,VWS V14.01,2013-01-07 06:50:00,
2013-01-06 22:55:00,45.3,44.5,29.50,SSW,202,4.0,4.0,97,0.00,,BKN045,0.13,VWS V14.01,2013-01-07 06:55:00,
2013-01-06 23:01:00,45.3,44.5,29.50,SSW,202,4.0,4.0,97,0.00,,SCT110,0.13,VWS V14.01,2013-01-07 07:01:00,
2013-01-06 23:06:00,45.1,44.3,29.50,SSW,202,4.0,4.0,97,0.00,,SCT110,0.13,VWS V14.01,2013-01-07 07:06:00,
2013-01-06 23:11:00,45.0,44.2,29.50,SSW,202,4.0,4.0,97,0.00,,SCT110,0.13,VWS V14.01,2013-01-07 07:11:00,
2013-01-06 23:16:00,44.8,44.0,29.50,SSW,202,4.0,4.0,97,0.00,,SCT110,0.13,VWS V14.01,2013-01-07 07:16:00,
2013-01-06 23:21:00,44.6,43.8,29.50,SSW,202,4.0,4.0,97,0.00,,SCT110,0.13,VWS V14.01,2013-01-07 07:21:00,
2013-01-06 23:26:00,44.6,43.8,29.50,SSW,202,4.0,4.0,97,0.00,,SCT110,0.13,VWS V14.01,2013-01-07 07:26:00,
2013-01-06 23:31:00,44.4,43.6,29.53,SSW,202,4.0,4.0,97,0.00,,SCT110,0.13,VWS V14.01,2013-01-07 07:31:00,
2013-01-06 23:36:00,44.1,43.3,29.53,SSW,202,4.0,4.0,97,0.00,,SCT110,0.13,VWS V14.01,2013-01-07 07:36:00,
2013-01-06 23:41:00,43.9,43.1,29.53,SSW,202,4.0,4.0,97,0.00,,SCT110,0.13,VWS V14.01,2013-01-07 07:41:00,
2013-01-06 23:46:00,43.7,42.9,29.50,SSW,202,4.0,4.0,97,0.00,,SCT110,0.13,VWS V14.01,2013-01-07 07:46:00,
2013-01-06 23:51:00,43.5,42.7,29.50,SSW,202,4.0,4.0,97,0.00,,SCT110,0.13,VWS V14.01,2013-01-07 07:51:00,
2013-01-06 23:56:00,43.7,43.2,29.50,SSW,202,4.0,4.0,98,0.00,,SCT110,0.13,VWS V14.01,2013-01-07 07:56:00,